createdAt,value
2018-12-14T00:01:23.036Z,34.33
2018-12-14T00:04:26.825Z,39.27
2018-12-14T00:07:30.561Z,39.37
2018-12-14T00:10:32.321Z,40.00
2018-12-14T00:13:33.965Z,40.93
2018-12-14T00:16:35.754Z,36.70
2018-12-14T00:19:37.473Z,39.13
2018-12-14T00:22:39.205Z,39.43
2018-12-14T00:25:42.091Z,38.17
2018-12-14T00:28:43.908Z,41.30
2018-12-14T00:31:45.605Z,41.23
2018-12-14T00:34:47.290Z,44.43
2018-12-14T00:37:49.003Z,44.20
2018-12-14T00:40:50.755Z,42.80
2018-12-14T00:43:52.438Z,43.00
2018-12-14T00:46:54.200Z,42.30
2018-12-14T00:49:55.901Z,42.40
2018-12-14T00:52:57.599Z,42.00
2018-12-14T00:55:59.350Z,62.20
2018-12-14T00:59:01.280Z,57.77
2018-12-14T01:02:05.078Z,42.03
2018-12-14T01:05:06.901Z,42.03
2018-12-14T01:08:08.664Z,44.53
2018-12-14T01:11:10.341Z,44.23
2018-12-14T01:14:12.049Z,41.13
2018-12-14T01:17:13.864Z,42.20
2018-12-14T01:20:15.615Z,43.60
2018-12-14T01:23:17.328Z,41.37
2018-12-14T01:26:19.098Z,42.07
2018-12-14T01:29:20.822Z,42.73
2018-12-14T01:32:22.620Z,40.00
2018-12-14T01:35:24.277Z,40.10
2018-12-14T01:38:26.070Z,39.93
2018-12-14T01:41:27.794Z,36.13
2018-12-14T01:44:29.490Z,37.07
2018-12-14T01:47:31.120Z,35.37
2018-12-14T01:50:32.870Z,34.60
2018-12-14T01:53:34.543Z,35.67
2018-12-14T01:56:36.307Z,36.47
2018-12-14T01:59:38.080Z,35.73
2018-12-14T02:02:39.800Z,36.47
2018-12-14T02:05:41.634Z,37.33
2018-12-14T02:08:43.439Z,38.17
2018-12-14T02:15:03.884Z,41.17
2018-12-14T02:18:05.651Z,43.73
2018-12-14T02:21:07.457Z,43.70
2018-12-14T02:24:09.399Z,42.50
2018-12-14T02:27:11.257Z,43.50
2018-12-14T02:30:25.370Z,42.87
2018-12-14T02:33:27.272Z,44.00
2018-12-14T02:36:28.979Z,42.63
2018-12-14T02:39:30.724Z,42.33
2018-12-14T02:42:39.511Z,42.50
2018-12-14T02:45:41.376Z,38.80
2018-12-14T02:48:43.105Z,42.60
2018-12-14T02:51:44.864Z,41.67
2018-12-14T02:54:46.739Z,43.53
2018-12-14T02:57:48.516Z,41.80
2018-12-14T03:00:50.174Z,39.67
2018-12-14T03:03:52.081Z,38.60
2018-12-14T03:06:53.757Z,39.83
2018-12-14T03:09:55.519Z,38.47
2018-12-14T03:12:57.625Z,39.27
2018-12-14T03:15:59.417Z,41.00
2018-12-14T03:19:01.269Z,37.47
2018-12-14T03:22:03.047Z,35.57
2018-12-14T03:25:04.762Z,41.20
2018-12-14T03:28:06.544Z,35.03
2018-12-14T03:31:08.271Z,37.40
2018-12-14T03:34:09.990Z,38.23
2018-12-14T03:37:11.710Z,38.07
2018-12-14T03:40:13.406Z,34.63
2018-12-14T03:43:15.083Z,36.57
2018-12-14T03:46:16.871Z,38.20
2018-12-14T03:49:19.356Z,37.37
2018-12-14T03:52:21.024Z,36.10
2018-12-14T03:55:22.742Z,36.93
2018-12-14T03:58:24.439Z,40.40
2018-12-14T04:01:26.182Z,36.57
2018-12-14T04:04:27.864Z,34.53
2018-12-14T04:07:29.552Z,36.00
2018-12-14T04:10:31.236Z,36.83
2018-12-14T04:13:32.905Z,35.47
2018-12-14T04:16:34.611Z,37.00
2018-12-14T04:19:37.452Z,37.60
2018-12-14T04:22:39.170Z,38.67
2018-12-14T04:25:40.961Z,37.57
2018-12-14T04:28:42.725Z,37.87
2018-12-14T04:31:44.404Z,37.83
2018-12-14T04:34:46.207Z,34.30
2018-12-14T04:37:47.926Z,37.93
2018-12-14T04:40:49.743Z,36.77
2018-12-14T04:43:51.411Z,38.67
2018-12-14T04:46:53.154Z,36.83
2018-12-14T04:49:54.809Z,38.70
2018-12-14T04:52:56.537Z,35.93
2018-12-14T04:55:58.257Z,37.07
2018-12-14T04:59:00.009Z,40.20
2018-12-14T05:02:01.679Z,36.60
2018-12-14T05:05:03.465Z,38.40
2018-12-14T05:08:05.193Z,39.13
2018-12-14T05:11:06.889Z,40.37
2018-12-14T05:14:08.644Z,39.47
2018-12-14T05:17:10.337Z,41.30
2018-12-14T05:20:12.152Z,44.20
2018-12-14T05:23:13.953Z,43.23
2018-12-14T05:26:15.837Z,41.87
2018-12-14T05:29:17.590Z,36.73
2018-12-14T05:32:19.348Z,36.97
2018-12-14T05:35:20.994Z,39.00
2018-12-14T05:38:22.693Z,39.33
2018-12-14T05:41:24.387Z,37.77
2018-12-14T05:44:26.089Z,42.33
2018-12-14T05:47:27.786Z,40.93
2018-12-14T05:50:29.496Z,41.83
2018-12-14T05:53:31.251Z,40.80
2018-12-14T05:56:33.025Z,42.23
2018-12-14T05:59:34.803Z,43.17
2018-12-14T06:02:36.529Z,39.63
2018-12-14T06:05:38.471Z,37.10
2018-12-14T06:08:40.257Z,39.57
2018-12-14T06:11:42.181Z,38.50
2018-12-14T06:14:43.901Z,40.00
2018-12-14T06:17:45.642Z,37.83
2018-12-14T06:20:47.379Z,38.87
2018-12-14T06:23:49.092Z,37.97
2018-12-14T06:26:50.980Z,41.30
2018-12-14T06:29:52.728Z,40.80
2018-12-14T06:32:54.426Z,36.67
2018-12-14T06:35:56.203Z,38.53
2018-12-14T06:38:57.929Z,39.87
2018-12-14T06:41:59.858Z,38.13
2018-12-14T06:45:01.648Z,40.33
2018-12-14T06:48:03.318Z,52.30
2018-12-14T06:51:05.381Z,74.20
2018-12-14T06:54:07.105Z,59.03
2018-12-14T06:57:08.801Z,43.73
2018-12-14T07:00:10.595Z,45.53
2018-12-14T07:03:12.334Z,47.70
2018-12-14T07:06:14.118Z,49.67
2018-12-14T07:09:15.842Z,49.37
2018-12-14T07:12:17.621Z,55.97
2018-12-14T07:15:19.323Z,38.47
2018-12-14T07:18:21.046Z,38.70
2018-12-14T07:21:22.742Z,37.67
2018-12-14T07:24:24.502Z,40.23
2018-12-14T07:27:26.294Z,39.73
2018-12-14T07:30:28.122Z,39.57
2018-12-14T07:33:29.829Z,38.33
2018-12-14T07:36:31.685Z,41.03
2018-12-14T07:39:33.452Z,37.87
2018-12-14T07:42:35.178Z,38.57
2018-12-14T07:45:36.909Z,35.27
2018-12-14T07:48:38.634Z,34.53
2018-12-14T07:51:40.341Z,28.07
2018-12-14T07:54:42.142Z,26.73
2018-12-14T07:57:43.871Z,29.13
2018-12-14T08:00:45.633Z,30.93
2018-12-14T08:03:47.477Z,35.50
2018-12-14T08:06:49.186Z,31.73
2018-12-14T08:09:50.853Z,28.20
2018-12-14T08:12:53.065Z,32.03
2018-12-14T08:15:54.801Z,32.73
2018-12-14T08:18:56.573Z,36.07
2018-12-14T08:21:58.500Z,29.03
2018-12-14T08:25:00.466Z,29.10
2018-12-14T08:28:03.665Z,24.17
2018-12-14T08:31:12.347Z,31.43
2018-12-14T08:34:14.089Z,27.57
2018-12-14T08:37:15.802Z,28.47
2018-12-14T08:40:17.539Z,27.27
2018-12-14T08:43:19.295Z,34.77
2018-12-14T08:46:21.063Z,32.77
2018-12-14T08:49:22.800Z,34.30
2018-12-14T08:52:24.581Z,31.53
2018-12-14T08:55:26.394Z,42.30
2018-12-14T08:58:28.103Z,29.10
2018-12-14T09:01:29.816Z,25.07
2018-12-14T09:04:31.532Z,27.83
2018-12-14T09:07:33.313Z,26.40
2018-12-14T09:10:35.041Z,27.70
2018-12-14T09:13:37.234Z,27.63
2018-12-14T09:16:39.106Z,26.20
2018-12-14T09:19:40.936Z,18.93
2018-12-14T09:22:42.954Z,17.17
2018-12-14T09:25:51.807Z,14.00
2018-12-14T09:28:53.793Z,25.53
2018-12-14T09:31:55.794Z,14.93
2018-12-14T09:34:57.485Z,12.67
2018-12-14T09:37:59.225Z,13.20
2018-12-14T09:41:01.589Z,10.97
2018-12-14T09:44:03.383Z,9.80
2018-12-14T09:47:05.165Z,22.10
2018-12-14T09:50:06.923Z,17.43
2018-12-14T09:53:10.727Z,20.00
2018-12-14T09:56:12.689Z,20.93
2018-12-14T09:59:14.462Z,19.57
2018-12-14T10:02:16.142Z,23.80
2018-12-14T10:05:17.865Z,32.87
2018-12-14T10:08:19.755Z,27.20
2018-12-14T10:11:21.695Z,19.27
2018-12-14T10:14:23.445Z,18.23
2018-12-14T10:17:25.154Z,20.53
2018-12-14T10:20:27.036Z,17.23
2018-12-14T10:23:28.823Z,34.17
2018-12-14T10:26:30.665Z,17.83
2018-12-14T10:29:32.538Z,22.27
2018-12-14T10:32:41.212Z,18.30
2018-12-14T10:35:42.968Z,30.13
2018-12-14T10:38:44.678Z,18.50
2018-12-14T10:41:46.476Z,18.93
2018-12-14T10:44:48.267Z,24.57
2018-12-14T10:47:49.998Z,21.97
2018-12-14T10:50:51.786Z,22.07
2018-12-14T10:53:53.537Z,23.33
2018-12-14T10:56:55.438Z,20.17
2018-12-14T10:59:57.222Z,18.30
2018-12-14T11:02:59.052Z,22.17
2018-12-14T11:06:00.764Z,23.43
2018-12-14T11:09:03.934Z,22.03
2018-12-14T11:12:06.829Z,20.47
2018-12-14T11:15:08.646Z,20.33
2018-12-14T11:18:10.394Z,20.27
2018-12-14T11:21:12.239Z,20.90
2018-12-14T11:24:14.027Z,21.73
2018-12-14T11:27:15.831Z,21.27
2018-12-14T11:30:17.574Z,17.57
2018-12-14T11:33:19.298Z,19.70
2018-12-14T11:36:21.128Z,18.80
2018-12-14T11:39:22.862Z,19.10
2018-12-14T11:42:24.685Z,17.20
2018-12-14T11:45:26.464Z,19.80
2018-12-14T11:48:28.247Z,20.87
2018-12-14T11:51:30.137Z,19.20
2018-12-14T11:54:31.968Z,22.20
2018-12-14T11:57:33.866Z,22.07
2018-12-14T12:00:35.686Z,23.17
2018-12-14T12:03:42.646Z,23.93
2018-12-14T12:06:41.238Z,22.10
2018-12-14T12:09:42.974Z,24.43
2018-12-14T12:12:51.740Z,21.50
2018-12-14T12:15:53.439Z,22.27
2018-12-14T12:18:55.193Z,20.30
2018-12-14T12:21:57.119Z,24.37
2018-12-14T12:24:58.959Z,23.43
2018-12-14T12:28:00.817Z,25.50
2018-12-14T12:31:02.596Z,23.77
2018-12-14T12:34:04.400Z,24.10
2018-12-14T12:37:06.210Z,23.83
2018-12-14T12:40:07.970Z,25.63
2018-12-14T12:43:09.936Z,25.10
2018-12-14T12:46:11.669Z,28.47
2018-12-14T12:49:13.467Z,24.27
2018-12-14T12:52:15.291Z,28.73
2018-12-14T12:55:17.222Z,22.87
2018-12-14T12:58:19.093Z,24.47
2018-12-14T13:01:20.915Z,35.80
2018-12-14T13:04:22.717Z,23.17
2018-12-14T13:07:24.436Z,29.57
2018-12-14T13:10:26.166Z,30.10
2018-12-14T13:13:27.902Z,28.13
2018-12-14T13:16:29.696Z,31.67
2018-12-14T13:19:31.486Z,24.63
2018-12-14T13:22:33.336Z,26.83
2018-12-14T13:25:35.032Z,30.47
2018-12-14T13:28:37.079Z,32.03
2018-12-14T13:31:38.839Z,35.37
2018-12-14T13:34:40.886Z,37.37
2018-12-14T13:37:42.576Z,36.13
2018-12-14T13:40:44.467Z,30.97
2018-12-14T13:43:47.356Z,103.63
2018-12-14T13:46:50.181Z,42.07
2018-12-14T13:49:52.341Z,35.33
2018-12-14T13:52:54.156Z,39.80
2018-12-14T13:55:55.996Z,36.87
2018-12-14T13:58:57.949Z,34.00
2018-12-14T14:02:01.151Z,32.20
2018-12-14T14:05:03.266Z,27.93
2018-12-14T14:08:05.042Z,25.60
2018-12-14T14:11:06.861Z,25.13
2018-12-14T14:14:08.957Z,26.90
2018-12-14T14:17:10.791Z,19.93
2018-12-14T14:20:12.562Z,23.20
2018-12-14T14:23:14.367Z,24.07
2018-12-14T14:26:16.167Z,22.93
2018-12-14T14:29:18.019Z,23.67
2018-12-14T14:32:20.960Z,21.33
2018-12-14T14:35:22.861Z,22.00
2018-12-14T14:38:24.632Z,22.97
2018-12-14T14:41:26.526Z,22.60
2018-12-14T14:44:28.420Z,19.10
2018-12-14T14:47:30.182Z,24.57
2018-12-14T14:50:32.116Z,24.93
2018-12-14T14:53:33.987Z,21.10
2018-12-14T14:56:35.736Z,24.60
2018-12-14T14:59:37.587Z,25.40
2018-12-14T15:02:39.294Z,37.93
2018-12-14T15:05:41.096Z,22.90
2018-12-14T15:08:42.915Z,23.77
2018-12-14T15:11:44.869Z,35.73
2018-12-14T15:14:46.636Z,76.53
2018-12-14T15:17:48.676Z,19.77
2018-12-14T15:20:50.571Z,22.93
2018-12-14T15:23:52.428Z,24.93
2018-12-14T15:26:54.286Z,32.20
2018-12-14T15:29:56.297Z,41.37
2018-12-14T15:32:58.352Z,24.23
2018-12-14T15:36:00.222Z,22.63
2018-12-14T15:39:01.993Z,22.43
2018-12-14T15:42:04.255Z,20.67
2018-12-14T15:45:12.966Z,18.77
2018-12-14T15:48:10.370Z,17.90
2018-12-14T15:51:12.108Z,18.17
2018-12-14T15:54:13.908Z,19.10
2018-12-14T15:57:15.719Z,17.43
2018-12-14T16:00:17.616Z,19.50
2018-12-14T16:03:19.446Z,17.83
2018-12-14T16:06:22.096Z,19.13
2018-12-14T16:09:24.293Z,24.20
2018-12-14T16:12:26.189Z,19.03
2018-12-14T16:15:28.697Z,18.70
2018-12-14T16:18:30.438Z,24.83
2018-12-14T16:21:32.287Z,17.90
2018-12-14T16:24:34.306Z,27.57
2018-12-14T16:27:37.860Z,22.97
2018-12-14T16:30:39.818Z,27.57
2018-12-14T16:33:41.582Z,31.30
2018-12-14T16:36:43.420Z,20.63
2018-12-14T16:39:45.240Z,18.87
2018-12-14T16:42:46.983Z,23.07
2018-12-14T16:45:48.834Z,25.73
2018-12-14T16:48:50.606Z,28.70
2018-12-14T16:51:52.474Z,29.00
2018-12-14T16:54:54.214Z,23.60
2018-12-14T16:57:56.021Z,27.33
2018-12-14T17:00:57.816Z,28.33
2018-12-14T17:03:59.755Z,26.30
2018-12-14T17:07:01.674Z,26.27
2018-12-14T17:10:04.571Z,28.37
2018-12-14T17:13:06.394Z,27.20
2018-12-14T17:16:08.190Z,29.33
2018-12-14T17:19:09.972Z,36.50
2018-12-14T17:25:29.624Z,28.50
2018-12-14T17:28:31.822Z,34.70
2018-12-14T17:31:33.656Z,24.47
2018-12-14T17:34:35.508Z,27.33
2018-12-14T17:37:38.446Z,28.30
2018-12-14T17:40:40.366Z,59.57
2018-12-14T17:43:42.275Z,64.33
2018-12-14T17:46:44.203Z,55.60
2018-12-14T17:49:45.975Z,21.40
2018-12-14T17:52:47.754Z,24.10
2018-12-14T17:55:49.631Z,26.40
2018-12-14T17:58:51.472Z,30.57
2018-12-14T18:01:53.406Z,36.90
2018-12-14T18:04:55.251Z,27.10
2018-12-14T18:07:57.049Z,36.60
2018-12-14T18:10:58.812Z,34.80
2018-12-14T18:14:00.852Z,31.50
2018-12-14T18:17:02.787Z,38.20
2018-12-14T18:20:06.113Z,46.00
2018-12-14T18:23:08.007Z,64.57
2018-12-14T18:26:09.901Z,63.03
2018-12-14T18:29:12.491Z,44.53
2018-12-14T18:32:14.811Z,41.03
2018-12-14T18:35:16.528Z,49.17
2018-12-14T18:38:18.384Z,34.93
2018-12-14T18:41:20.517Z,31.80
2018-12-14T18:44:23.273Z,31.17
2018-12-14T18:47:25.617Z,33.43
2018-12-14T18:50:28.954Z,36.63
2018-12-14T18:53:31.905Z,31.43
2018-12-14T18:56:33.885Z,101.67
2018-12-14T18:59:37.243Z,105.73
2018-12-14T19:02:39.374Z,69.67
2018-12-14T19:05:42.447Z,52.93
2018-12-14T19:08:44.285Z,34.27
2018-12-14T19:11:46.193Z,44.60
2018-12-14T19:14:48.078Z,44.67
2018-12-14T19:17:53.969Z,32.23
2018-12-14T19:20:56.988Z,40.23
2018-12-14T19:23:59.347Z,43.07
2018-12-14T19:27:01.396Z,34.97
2018-12-14T19:30:04.598Z,38.03
2018-12-14T19:33:06.377Z,33.50
2018-12-14T19:36:17.925Z,38.43
2018-12-14T19:39:20.915Z,37.40
2018-12-14T19:42:25.290Z,38.67
2018-12-14T19:45:28.020Z,38.37
2018-12-14T19:48:31.347Z,37.57
2018-12-14T19:51:34.149Z,39.63
2018-12-14T19:54:37.076Z,38.27
2018-12-14T19:57:39.884Z,39.10
2018-12-14T20:00:41.716Z,35.37
2018-12-14T20:03:44.390Z,42.80
2018-12-14T20:06:46.713Z,38.27
2018-12-14T20:09:49.566Z,37.37
2018-12-14T20:12:52.819Z,34.53
2018-12-14T20:15:57.755Z,32.97
2018-12-14T20:18:58.899Z,33.97
2018-12-14T20:22:00.726Z,34.87
2018-12-14T20:25:03.169Z,35.37
2018-12-14T20:28:05.846Z,37.53
2018-12-14T20:31:07.697Z,34.00
2018-12-14T20:34:09.488Z,36.87
2018-12-14T20:37:11.387Z,45.60
2018-12-14T20:40:17.069Z,37.07
2018-12-14T20:43:20.809Z,39.23
2018-12-14T20:46:22.589Z,38.90
2018-12-14T20:49:24.585Z,38.90
2018-12-14T20:52:27.169Z,38.50
2018-12-14T20:55:30.977Z,36.90
2018-12-14T20:58:33.214Z,38.60
2018-12-14T21:01:34.986Z,43.67
2018-12-14T21:04:37.876Z,44.80
2018-12-14T21:07:39.602Z,38.37
2018-12-14T21:10:41.456Z,55.73
2018-12-14T21:13:43.371Z,54.87
2018-12-14T21:16:45.149Z,50.00
2018-12-14T21:19:48.095Z,54.60
2018-12-14T21:22:49.818Z,44.13
2018-12-14T21:25:51.959Z,46.20
2018-12-14T21:28:53.809Z,56.87
2018-12-14T21:32:02.666Z,51.70
2018-12-14T21:35:04.986Z,103.53
2018-12-14T21:38:06.747Z,94.60
2018-12-14T21:41:08.522Z,49.00
2018-12-14T21:44:10.644Z,65.70
2018-12-14T21:47:12.969Z,57.07
2018-12-14T21:50:15.663Z,48.60
2018-12-14T21:53:17.532Z,52.53
2018-12-14T21:56:19.811Z,67.50
2018-12-14T21:59:21.559Z,56.57
2018-12-14T22:02:23.426Z,81.50
2018-12-14T22:05:25.163Z,80.67
2018-12-14T22:08:34.030Z,65.33
2018-12-14T22:11:35.778Z,52.23
2018-12-14T22:14:37.735Z,84.90
2018-12-14T22:17:39.427Z,52.80
2018-12-14T22:20:41.190Z,60.70
2018-12-14T22:23:42.985Z,49.50
2018-12-14T22:26:44.731Z,62.20
2018-12-14T22:29:46.474Z,45.43
2018-12-14T22:32:48.193Z,67.92
2018-12-14T22:35:49.986Z,48.27
2018-12-14T22:38:51.767Z,59.77
2018-12-14T22:41:53.521Z,58.57
2018-12-14T22:44:55.403Z,68.53
2018-12-14T22:47:57.184Z,66.80
2018-12-14T22:50:58.977Z,72.60
2018-12-14T22:54:00.705Z,64.57
2018-12-14T22:57:02.532Z,65.90
2018-12-14T23:00:07.587Z,51.83
2018-12-14T23:03:17.256Z,50.97
2018-12-14T23:06:19.164Z,68.97
2018-12-14T23:09:20.898Z,46.90
2018-12-14T23:12:22.663Z,48.30
2018-12-14T23:15:24.616Z,74.73
2018-12-14T23:18:26.527Z,76.77
2018-12-14T23:21:28.346Z,49.33
2018-12-14T23:24:30.162Z,52.27
2018-12-14T23:27:31.953Z,63.50
2018-12-14T23:30:33.883Z,58.73
2018-12-14T23:33:35.631Z,48.93
2018-12-14T23:36:37.503Z,46.17
2018-12-14T23:39:39.187Z,49.07
2018-12-14T23:42:40.890Z,52.23
2018-12-14T23:45:42.690Z,57.20
2018-12-14T23:48:44.473Z,48.13
2018-12-14T23:51:46.309Z,52.07
2018-12-14T23:54:48.023Z,50.93
2018-12-14T23:57:49.803Z,63.90
